Aviation Digital Data Service (ADDS)

Output produced by METARs form (1652 UTC 20 May 2022)
found at http://aviationweather.gov/metar/data/
 
METAR text: KMHR 201635Z AUTO 33020G27KT 10SM CLR 19/M04 A2976 RMK A01
Conditions at: KMHR (MATHER FIELD , CA, US) observed 1635 UTC 20 May 2022
Temperature: 19.0°C (66°F)
Dewpoint: -4.0°C (25°F) [RH = 21%]
Pressure (altimeter): 29.76 inches Hg (1007.9 mb)
Winds: from the NNW (330 degrees) at 23 MPH (20 knots; 10.3 m/s)
gusting to 31 MPH (27 knots; 13.9 m/s)
Visibility: 10 or more miles (16+ km)
Ceiling: at least 12,000 feet AGL
Clouds: sky clear below 12,000 feet AGL
Weather: automated observation with no human augmentation;
there may or may not be significant weather present at this time

METAR text: KMHR 201615Z AUTO 34017G26KT 10SM CLR 19/M04 A2977 RMK A01
Conditions at: KMHR (MATHER FIELD , CA, US) observed 1615 UTC 20 May 2022
Temperature: 19.0°C (66°F)
Dewpoint: -4.0°C (25°F) [RH = 21%]
Pressure (altimeter): 29.77 inches Hg (1008.2 mb)
Winds: from the NNW (340 degrees) at 20 MPH (17 knots; 8.7 m/s)
gusting to 30 MPH (26 knots; 13.4 m/s)
Visibility: 10 or more miles (16+ km)
Ceiling: at least 12,000 feet AGL
Clouds: sky clear below 12,000 feet AGL
Weather: automated observation with no human augmentation;
there may or may not be significant weather present at this time

METAR text: KMHR 201555Z AUTO 33022G28KT 10SM CLR 18/M04 A2977 RMK A01
Conditions at: KMHR (MATHER FIELD , CA, US) observed 1555 UTC 20 May 2022
Temperature: 18.0°C (64°F)
Dewpoint: -4.0°C (25°F) [RH = 22%]
Pressure (altimeter): 29.77 inches Hg (1008.2 mb)
Winds: from the NNW (330 degrees) at 25 MPH (22 knots; 11.3 m/s)
gusting to 32 MPH (28 knots; 14.4 m/s)
Visibility: 10 or more miles (16+ km)
Ceiling: at least 12,000 feet AGL
Clouds: sky clear below 12,000 feet AGL
Weather: automated observation with no human augmentation;
there may or may not be significant weather present at this time

Forecast for: KMHR (MATHER FIELD , CA, US)
Text: KMHR 201128Z 2012/2112 33022G30KT P6SM FEW250
Forecast period: 1200 to 1600 UTC 20 May 2022
Forecast type: FROM: standard forecast or significant change
Winds: from the NNW (330 degrees) at 25 MPH (22 knots; 11.3 m/s)
gusting to 34 MPH (30 knots; 15.4 m/s)
Visibility: 6 or more miles (10+ km)
Ceiling: at least 12,000 feet AGL
Clouds: few clouds at 25000 feet AGL
Weather: no significant weather forecast for this period
Text: FM201600 33026G35KT P6SM SKC
Forecast period: 1600 UTC 20 May 2022 to 0400 UTC 21 May 2022
Forecast type: FROM: standard forecast or significant change
Winds: from the NNW (330 degrees) at 30 MPH (26 knots; 13.4 m/s)
gusting to 40 MPH (35 knots; 18.0 m/s)
Visibility: 6 or more miles (10+ km)
Clouds: clear skies
Weather: no significant weather forecast for this period
Text: FM210400 30010KT P6SM SKC
Forecast period: 0400 to 1200 UTC 21 May 2022
Forecast type: FROM: standard forecast or significant change
Winds: from the WNW (300 degrees) at 12 MPH (10 knots; 5.1 m/s)
Visibility: 6 or more miles (10+ km)
Clouds: clear skies
Weather: no significant weather forecast for this period